Time;durP1;ratioP1;P1;durP2;ratioP2;P2;SDS_P1;SDS_P2;PMS_P1;PMS_P2;Temp;Humidity;BMP_temperature;BMP_pressure;BME280_temperature;BME280_humidity;BME280_pressure;Samples;Min_cycle;Max_cycle;Signal;HPM_P1;HPM_P2
2022/03/28 00:01:30;;;;;;;8.17;5.50;;;11.10;99.90;;;;;;5032648;28;20720;-77
2022/03/28 00:03:56;;;;;;;10.83;6.27;;;11.10;99.90;;;;;;5032761;28;20295;-77
2022/03/28 00:06:21;;;;;;;8.93;5.50;;;11.00;99.90;;;;;;5031854;28;20219;-77
2022/03/28 00:08:49;;;;;;;14.27;6.00;;;11.10;99.90;;;;;;5031853;28;20282;-78
2022/03/28 00:11:14;;;;;;;9.67;5.90;;;11.10;99.90;;;;;;5032092;28;20270;-77
2022/03/28 00:13:40;;;;;;;10.27;5.97;;;11.00;99.90;;;;;;5032530;28;20632;-77
2022/03/28 00:16:05;;;;;;;9.97;5.67;;;11.00;99.90;;;;;;5032341;28;20247;-76
2022/03/28 00:18:31;;;;;;;11.83;6.10;;;11.00;99.90;;;;;;5029811;28;20203;-77
2022/03/28 00:20:56;;;;;;;8.87;5.50;;;11.00;99.90;;;;;;5031255;28;20752;-77
2022/03/28 00:23:24;;;;;;;12.27;6.33;;;11.10;99.90;;;;;;5030165;28;20214;-77
2022/03/28 00:25:50;;;;;;;9.67;5.23;;;11.10;99.90;;;;;;5031144;28;20232;-78
2022/03/28 00:28:16;;;;;;;12.57;6.60;;;11.00;99.90;;;;;;5030819;28;20258;-77
2022/03/28 00:30:42;;;;;;;9.40;5.83;;;10.90;99.90;;;;;;5031129;28;20176;-78
2022/03/28 00:33:08;;;;;;;13.97;6.10;;;10.90;99.90;;;;;;5031557;28;20269;-77
2022/03/28 00:35:35;;;;;;;10.50;5.93;;;10.90;99.90;;;;;;5031164;28;20208;-77
2022/03/28 00:38:01;;;;;;;9.67;5.53;;;10.80;99.90;;;;;;5030517;28;20200;-77
2022/03/28 00:40:28;;;;;;;11.17;6.17;;;10.90;99.90;;;;;;5046278;28;20219;-77
2022/03/28 00:42:54;;;;;;;8.73;5.23;;;10.80;99.90;;;;;;5031005;28;20650;-77
2022/03/28 00:45:21;;;;;;;13.03;6.80;;;10.80;99.90;;;;;;5037181;28;20668;-78
2022/03/28 00:47:46;;;;;;;10.37;5.83;;;10.80;99.90;;;;;;5022546;28;20204;-77
2022/03/28 00:50:12;;;;;;;10.33;5.90;;;10.80;99.90;;;;;;5029482;28;20623;-77
2022/03/28 00:52:39;;;;;;;10.27;6.07;;;10.70;99.90;;;;;;5030690;28;20224;-77
2022/03/28 00:55:06;;;;;;;11.57;6.70;;;10.70;99.90;;;;;;5046420;28;20659;-78
2022/03/28 00:57:32;;;;;;;9.77;5.90;;;10.70;99.90;;;;;;5030802;28;20574;-78
2022/03/28 01:00:04;;;;;;;9.67;6.30;;;10.70;99.90;;;;;;5030689;28;20235;-77
2022/03/28 01:02:30;;;;;;;11.20;6.77;;;10.70;99.90;;;;;;5030625;28;20214;-78
2022/03/28 01:04:56;;;;;;;9.77;6.47;;;10.70;99.90;;;;;;5030885;28;20741;-77
2022/03/28 01:07:22;;;;;;;11.10;6.57;;;10.70;99.90;;;;;;5046116;28;20204;-77
2022/03/28 01:09:47;;;;;;;13.50;6.63;;;10.70;99.90;;;;;;5030227;28;20633;-78
2022/03/28 01:12:13;;;;;;;12.57;6.27;;;10.60;99.90;;;;;;5031039;28;20216;-77
2022/03/28 01:14:41;;;;;;;13.43;6.43;;;10.60;99.90;;;;;;5041634;28;20205;-77
2022/03/28 01:19:54;;;;;;;11.77;6.43;;;10.50;99.90;;;;;;5030098;28;20203;-78
2022/03/28 01:22:20;;;;;;;10.83;6.33;;;10.60;99.90;;;;;;5030708;28;20212;-77
2022/03/28 01:24:47;;;;;;;10.77;6.80;;;10.50;99.90;;;;;;5030895;28;20172;-77
2022/03/28 01:27:13;;;;;;;13.93;6.40;;;10.40;99.90;;;;;;5031234;28;20255;-78
2022/03/28 01:29:43;;;;;;;11.63;6.47;;;10.40;99.90;;;;;;5028463;28;20259;-78
2022/03/28 01:32:09;;;;;;;13.90;6.67;;;10.40;99.90;;;;;;5029366;28;20723;-78
2022/03/28 01:34:34;;;;;;;13.23;6.37;;;10.30;99.90;;;;;;5030568;28;20291;-78
2022/03/28 01:37:00;;;;;;;12.57;6.90;;;10.30;99.90;;;;;;5031657;28;20208;-78
2022/03/28 01:39:26;;;;;;;11.10;6.27;;;10.30;99.90;;;;;;5034026;28;20238;-77
2022/03/28 01:41:52;;;;;;;12.07;6.63;;;10.30;99.90;;;;;;5032568;28;20211;-77
2022/03/28 01:44:17;;;;;;;14.00;7.03;;;10.20;99.90;;;;;;5034333;28;20214;-77
2022/03/28 01:46:48;;;;;;;11.60;6.97;;;10.30;99.90;;;;;;5034210;28;20214;-78
2022/03/28 01:49:15;;;;;;;13.00;7.37;;;10.30;99.90;;;;;;5048931;28;20208;-77
2022/03/28 01:51:41;;;;;;;11.47;7.17;;;10.20;99.90;;;;;;5049240;28;20212;-77
2022/03/28 01:54:07;;;;;;;13.30;6.77;;;10.20;99.90;;;;;;5034701;28;20173;-78
2022/03/28 01:56:34;;;;;;;10.93;7.17;;;10.10;99.90;;;;;;5032694;28;20201;-78
2022/03/28 01:59:00;;;;;;;11.70;6.13;;;10.10;99.90;;;;;;5033461;28;20212;-77
2022/03/28 02:01:26;;;;;;;14.00;6.93;;;10.20;99.90;;;;;;5034306;28;20212;-77
2022/03/28 02:03:51;;;;;;;11.50;6.27;;;10.10;99.90;;;;;;5034006;28;20274;-77
2022/03/28 02:06:17;;;;;;;13.93;6.30;;;10.10;99.90;;;;;;5034410;28;20264;-77
2022/03/28 02:08:42;;;;;;;12.90;6.10;;;10.00;99.90;;;;;;5035873;28;20204;-78
2022/03/28 02:11:08;;;;;;;15.87;6.87;;;10.00;99.90;;;;;;5035891;28;20217;-77
2022/03/28 02:13:33;;;;;;;11.07;6.20;;;10.00;99.90;;;;;;5047224;23;20606;-79
2022/03/28 02:16:00;;;;;;;9.80;5.57;;;9.90;99.90;;;;;;5060459;28;20276;-79
2022/03/28 02:18:26;;;;;;;11.20;6.80;;;9.90;99.90;;;;;;5066767;28;20176;-79
2022/03/28 02:20:52;;;;;;;13.07;6.30;;;9.90;99.90;;;;;;5077048;28;20675;-80
2022/03/28 02:23:17;;;;;;;12.93;6.80;;;9.90;99.90;;;;;;5069007;28;20631;-81
2022/03/28 02:25:52;;;;;;;13.03;6.43;;;9.80;99.90;;;;;;5079217;28;20227;-80
2022/03/28 02:28:17;;;;;;;17.47;7.17;;;9.80;99.90;;;;;;5050812;28;20211;-79
2022/03/28 02:30:43;;;;;;;13.10;6.53;;;9.80;99.90;;;;;;5058412;28;20222;-80
2022/03/28 02:33:09;;;;;;;13.57;6.83;;;9.70;99.90;;;;;;5059487;28;20212;-81
2022/03/28 02:35:35;;;;;;;14.47;6.57;;;9.70;99.90;;;;;;5055549;28;20199;-78
2022/03/28 02:38:01;;;;;;;11.53;6.40;;;9.60;99.90;;;;;;5054922;28;20203;-79
2022/03/28 02:40:31;;;;;;;13.23;6.93;;;9.60;99.90;;;;;;5057305;28;20261;-78
2022/03/28 02:42:58;;;;;;;14.70;6.80;;;9.60;99.90;;;;;;5053412;28;20723;-78
2022/03/28 02:45:30;;;;;;;13.87;6.53;;;9.50;99.90;;;;;;5051730;28;20532;-77
2022/03/28 02:47:56;;;;;;;14.73;6.00;;;9.50;99.90;;;;;;5052513;28;20195;-77
2022/03/28 02:50:22;;;;;;;13.87;6.47;;;9.60;99.90;;;;;;5051498;28;20250;-77
2022/03/28 02:52:47;;;;;;;14.23;6.77;;;9.70;99.90;;;;;;5052402;28;20219;-77
2022/03/28 02:55:14;;;;;;;16.17;6.33;;;9.70;99.90;;;;;;5051550;28;20268;-78
2022/03/28 02:57:39;;;;;;;14.70;5.40;;;9.70;99.90;;;;;;5050697;28;20187;-77
2022/03/28 03:00:08;;;;;;;14.47;6.50;;;9.60;99.90;;;;;;5051590;28;20168;-77
2022/03/28 03:02:38;;;;;;;11.33;5.73;;;9.60;99.90;;;;;;5052429;28;20548;-77
2022/03/28 03:05:05;;;;;;;11.83;5.10;;;9.50;99.90;;;;;;5052586;28;20217;-77
2022/03/28 03:07:30;;;;;;;17.13;5.50;;;9.50;99.90;;;;;;5051073;28;20207;-77
2022/03/28 03:09:56;;;;;;;15.80;5.93;;;9.50;99.90;;;;;;5050454;28;20207;-77
2022/03/28 03:12:21;;;;;;;16.27;5.57;;;9.50;99.90;;;;;;5052794;28;20625;-77
2022/03/28 03:14:47;;;;;;;10.67;5.40;;;9.50;99.90;;;;;;5050949;28;20269;-76
2022/03/28 03:17:12;;;;;;;15.63;5.57;;;9.40;99.90;;;;;;5052469;28;20227;-77
2022/03/28 03:19:40;;;;;;;16.13;6.17;;;9.40;99.90;;;;;;5051470;28;20211;-77
2022/03/28 03:22:06;;;;;;;14.47;5.37;;;9.50;99.90;;;;;;5052377;28;20208;-78
2022/03/28 03:24:32;;;;;;;15.40;6.33;;;9.50;99.90;;;;;;5051865;28;20227;-77
2022/03/28 03:26:57;;;;;;;13.80;5.97;;;9.50;99.90;;;;;;5052518;28;20203;-77
2022/03/28 03:29:23;;;;;;;14.33;5.43;;;9.50;99.90;;;;;;5049647;28;20211;-77
2022/03/28 03:31:49;;;;;;;9.27;5.97;;;9.40;99.90;;;;;;5052228;28;20229;-78
2022/03/28 03:34:14;;;;;;;14.20;5.70;;;9.40;99.90;;;;;;5050600;28;20207;-78
2022/03/28 03:36:40;;;;;;;13.10;5.90;;;9.30;99.90;;;;;;5050610;28;20225;-78
2022/03/28 03:39:05;;;;;;;10.90;5.80;;;9.30;99.90;;;;;;5050426;28;20199;-78
2022/03/28 03:41:31;;;;;;;12.27;5.83;;;9.20;99.90;;;;;;5050474;28;20208;-77
2022/03/28 03:43:56;;;;;;;14.87;6.07;;;9.30;99.90;;;;;;5050472;28;20230;-78
2022/03/28 03:46:22;;;;;;;12.03;5.77;;;9.30;99.90;;;;;;5051700;28;20725;-76
2022/03/28 03:48:47;;;;;;;13.63;5.80;;;9.30;99.90;;;;;;5051157;28;20219;-79
2022/03/28 03:51:13;;;;;;;9.83;5.47;;;9.20;99.90;;;;;;5052127;28;20215;-78
2022/03/28 03:53:39;;;;;;;10.83;6.27;;;9.20;99.90;;;;;;5051235;28;20727;-77
2022/03/28 03:56:04;;;;;;;11.43;5.67;;;9.20;99.90;;;;;;5051537;28;20203;-77
2022/03/28 03:58:30;;;;;;;16.67;5.83;;;9.10;99.90;;;;;;5050353;28;20211;-79
2022/03/28 04:00:56;;;;;;;10.90;5.87;;;9.10;99.90;;;;;;5051063;28;20889;-76
2022/03/28 04:03:21;;;;;;;12.90;6.27;;;9.00;99.90;;;;;;5050477;28;20257;-77
2022/03/28 04:05:47;;;;;;;13.67;6.27;;;8.90;99.90;;;;;;5051503;28;20211;-78
2022/03/28 04:08:12;;;;;;;11.63;5.73;;;8.80;99.90;;;;;;5050601;28;20211;-77
2022/03/28 04:10:38;;;;;;;10.97;5.83;;;8.90;99.90;;;;;;5050516;28;20699;-78
2022/03/28 04:13:03;;;;;;;17.67;6.10;;;8.90;99.90;;;;;;5051212;28;20228;-77
2022/03/28 04:15:29;;;;;;;10.70;6.23;;;8.80;99.90;;;;;;5051312;28;20229;-77
2022/03/28 04:17:55;;;;;;;13.93;6.10;;;8.90;99.90;;;;;;5051585;28;20188;-77
2022/03/28 04:20:20;;;;;;;14.13;7.13;;;8.70;99.90;;;;;;5049416;28;20211;-80
2022/03/28 04:22:46;;;;;;;15.77;7.40;;;8.70;99.90;;;;;;5051055;28;20219;-78
2022/03/28 04:25:13;;;;;;;13.80;6.33;;;8.70;99.90;;;;;;5051328;28;20302;-79
2022/03/28 04:27:39;;;;;;;13.23;5.80;;;8.80;99.90;;;;;;5047576;28;20533;-78
2022/03/28 04:30:07;;;;;;;12.80;6.50;;;8.70;99.90;;;;;;5050774;28;20183;-76
2022/03/28 04:32:33;;;;;;;12.43;6.30;;;8.70;99.90;;;;;;5051783;28;20215;-79
2022/03/28 04:34:59;;;;;;;13.87;6.07;;;8.60;99.90;;;;;;5052653;28;20277;-79
2022/03/28 04:37:25;;;;;;;13.13;6.77;;;8.60;99.90;;;;;;5055292;28;20215;-78
2022/03/28 04:39:50;;;;;;;17.33;6.47;;;8.50;99.90;;;;;;5058032;28;20581;-78
2022/03/28 04:42:16;;;;;;;13.67;7.43;;;8.50;99.90;;;;;;5058164;28;20232;-78
2022/03/28 04:44:41;;;;;;;17.90;8.03;;;8.40;99.90;;;;;;5056738;28;20246;-80
2022/03/28 04:47:07;;;;;;;19.17;7.17;;;8.40;99.90;;;;;;5056816;28;20412;-79
2022/03/28 04:49:33;;;;;;;12.30;6.17;;;8.50;99.90;;;;;;5055638;28;20215;-79
2022/03/28 04:51:58;;;;;;;12.33;7.23;;;8.40;99.90;;;;;;5058674;28;20225;-79
2022/03/28 04:54:24;;;;;;;13.93;7.90;;;8.50;99.90;;;;;;5059970;28;20208;-79
2022/03/28 04:56:50;;;;;;;15.07;7.60;;;8.50;99.90;;;;;;5053635;28;20211;-79
2022/03/28 04:59:15;;;;;;;14.97;7.10;;;8.50;99.90;;;;;;5056895;28;20211;-79
2022/03/28 05:01:41;;;;;;;11.80;6.00;;;8.40;99.90;;;;;;5061039;28;20204;-79
2022/03/28 05:04:06;;;;;;;11.10;6.73;;;8.50;99.90;;;;;;5055970;28;20227;-79
2022/03/28 05:06:32;;;;;;;15.40;7.37;;;8.40;99.90;;;;;;5058481;28;20704;-79
2022/03/28 05:08:57;;;;;;;14.90;7.50;;;8.40;99.90;;;;;;5060180;28;20206;-79
2022/03/28 05:11:23;;;;;;;12.20;7.13;;;8.50;99.90;;;;;;5062866;28;20275;-79
2022/03/28 05:13:50;;;;;;;12.03;7.70;;;8.50;99.90;;;;;;5065229;28;20741;-78
2022/03/28 05:16:16;;;;;;;11.80;7.40;;;8.50;99.90;;;;;;5064366;28;20723;-79
2022/03/28 05:18:42;;;;;;;16.47;8.67;;;8.60;99.90;;;;;;5062457;28;20745;-77
2022/03/28 05:21:07;;;;;;;14.10;7.43;;;8.70;99.90;;;;;;5065634;28;20820;-79
2022/03/28 05:23:33;;;;;;;15.07;7.40;;;8.70;99.90;;;;;;5063987;28;20211;-79
2022/03/28 05:25:59;;;;;;;15.67;7.10;;;8.70;99.90;;;;;;5062643;28;20213;-79
2022/03/28 05:28:24;;;;;;;13.03;7.40;;;8.80;99.90;;;;;;5058464;28;20210;-81
2022/03/28 05:30:51;;;;;;;18.37;7.93;;;8.90;99.90;;;;;;5059824;28;20231;-80
2022/03/28 05:33:17;;;;;;;17.07;7.87;;;8.90;99.90;;;;;;5058708;28;20211;-78
2022/03/28 05:35:44;;;;;;;14.07;7.33;;;9.00;99.90;;;;;;5058292;28;20203;-81
2022/03/28 05:38:10;;;;;;;14.60;7.30;;;9.00;99.90;;;;;;5058067;28;20225;-79
2022/03/28 05:40:36;;;;;;;12.70;7.10;;;9.10;99.90;;;;;;5058029;28;20206;-80
2022/03/28 05:43:01;;;;;;;14.73;7.83;;;9.20;99.90;;;;;;5056128;28;20212;-79
2022/03/28 05:45:27;;;;;;;13.07;7.57;;;9.40;99.90;;;;;;5057925;28;20550;-79
2022/03/28 05:47:53;;;;;;;12.37;7.00;;;11.30;99.90;;;;;;5056289;28;20199;-80
2022/03/28 05:50:18;;;;;;;13.60;7.27;;;14.00;99.90;;;;;;5058050;28;20204;-80
2022/03/28 05:52:44;;;;;;;14.00;7.33;;;15.80;99.90;;;;;;5059860;28;20215;-79
2022/03/28 05:55:10;;;;;;;14.32;6.85;;;17.10;99.90;;;;;;5059289;28;20241;-80
2022/03/28 05:57:36;;;;;;;13.05;7.28;;;18.20;99.90;;;;;;5059094;28;20175;-80
2022/03/28 06:00:05;;;;;;;12.35;6.60;;;18.80;99.90;;;;;;5059598;28;20229;-80
2022/03/28 06:02:31;;;;;;;13.80;8.70;;;19.60;99.90;;;;;;5060255;28;20204;-80
2022/03/28 06:04:56;;;;;;;16.42;8.10;;;20.50;99.90;;;;;;5055760;28;20204;-77
2022/03/28 06:07:22;;;;;;;14.85;7.30;;;21.30;99.90;;;;;;5053469;28;20214;-79
2022/03/28 06:09:47;;;;;;;13.23;7.53;;;21.70;99.90;;;;;;5053332;28;20207;-79
2022/03/28 06:12:13;;;;;;;14.45;7.45;;;21.90;99.90;;;;;;5054022;28;20560;-77
2022/03/28 06:14:38;;;;;;;14.57;7.95;;;22.10;99.90;;;;;;5053148;28;20298;-79
2022/03/28 06:17:04;;;;;;;11.88;7.10;;;22.50;99.90;;;;;;5053594;28;20198;-78
2022/03/28 06:19:29;;;;;;;12.07;7.78;;;22.80;99.90;;;;;;5051090;28;20207;-78
2022/03/28 06:21:55;;;;;;;12.93;7.95;;;23.20;99.90;;;;;;5053563;28;20228;-79
2022/03/28 06:24:20;;;;;;;17.00;7.50;;;23.00;99.90;;;;;;5051884;28;20217;-78
2022/03/28 06:26:46;;;;;;;15.35;8.45;;;22.80;99.90;;;;;;5053624;28;20261;-79
2022/03/28 06:29:11;;;;;;;13.27;8.07;;;23.20;99.70;;;;;;5052612;28;20286;-79
2022/03/28 06:31:37;;;;;;;13.82;8.05;;;23.30;99.00;;;;;;5053246;28;20232;-79
2022/03/28 06:34:02;;;;;;;15.45;8.98;;;23.50;98.20;;;;;;5053308;28;20299;-79
2022/03/28 06:36:29;;;;;;;12.85;8.18;;;22.80;98.00;;;;;;5055537;28;20183;-79
2022/03/28 06:38:55;;;;;;;15.02;9.30;;;23.00;98.10;;;;;;5052768;28;20589;-79
2022/03/28 06:41:21;;;;;;;13.45;7.88;;;23.50;97.30;;;;;;5052781;28;20581;-77
2022/03/28 06:43:47;;;;;;;14.55;8.52;;;23.40;96.90;;;;;;5053159;28;20215;-79
2022/03/28 06:46:13;;;;;;;16.90;9.10;;;23.40;96.50;;;;;;5051894;28;20278;-79
2022/03/28 06:48:39;;;;;;;13.38;8.40;;;23.60;95.80;;;;;;5052263;28;20555;-78
2022/03/28 06:51:06;;;;;;;13.10;8.75;;;23.50;95.90;;;;;;5052611;28;20176;-79
2022/03/28 06:53:31;;;;;;;14.60;8.65;;;23.60;95.40;;;;;;5052666;28;20210;-79
2022/03/28 06:55:57;;;;;;;15.45;8.70;;;23.10;95.30;;;;;;5053148;28;20286;-79
2022/03/28 06:58:23;;;;;;;14.70;8.02;;;24.10;94.20;;;;;;5052254;28;20238;-78
2022/03/28 07:00:49;;;;;;;14.68;8.40;;;23.90;93.60;;;;;;5053337;28;20234;-78
2022/03/28 07:03:14;;;;;;;14.10;8.45;;;24.10;93.60;;;;;;5057085;28;20200;-80
2022/03/28 07:05:40;;;;;;;13.70;8.25;;;23.60;92.80;;;;;;5058500;28;20210;-80
2022/03/28 07:08:08;;;;;;;12.60;8.38;;;23.40;93.70;;;;;;5056297;28;20218;-79
2022/03/28 07:10:33;;;;;;;12.60;8.13;;;23.10;94.10;;;;;;5051452;28;20845;-77
2022/03/28 07:12:59;;;;;;;15.30;7.82;;;23.20;93.80;;;;;;5052616;28;20227;-78
2022/03/28 07:15:26;;;;;;;12.48;8.02;;;23.50;93.00;;;;;;5053474;28;20574;-80
2022/03/28 07:17:56;;;;;;;14.02;8.40;;;23.50;92.50;;;;;;5053553;28;20370;-78
2022/03/28 07:20:23;;;;;;;13.80;8.30;;;23.80;92.10;;;;;;5056760;28;20208;-79
2022/03/28 07:22:50;;;;;;;13.48;8.05;;;23.30;92.60;;;;;;5057326;28;20258;-79
2022/03/28 07:25:16;;;;;;;15.43;8.43;;;24.40;92.00;;;;;;5059121;28;20275;-80
2022/03/28 07:27:42;;;;;;;12.10;8.07;;;25.10;90.70;;;;;;5057948;28;20215;-80
2022/03/28 07:30:09;;;;;;;20.25;11.00;;;25.70;89.50;;;;;;5053878;28;20245;-77
2022/03/28 07:32:35;;;;;;;16.25;9.30;;;25.30;88.80;;;;;;5052041;28;20212;-77
2022/03/28 07:35:01;;;;;;;15.05;9.65;;;24.50;89.20;;;;;;5052523;28;20295;-79
2022/03/28 07:37:27;;;;;;;14.95;8.45;;;24.30;90.20;;;;;;5050652;28;20207;-77
2022/03/28 07:39:53;;;;;;;13.18;8.38;;;24.20;89.60;;;;;;5051500;28;20204;-78
2022/03/28 07:42:18;;;;;;;13.20;8.73;;;23.80;90.20;;;;;;5052462;28;20184;-77
2022/03/28 07:44:44;;;;;;;15.10;9.20;;;23.50;90.80;;;;;;5052181;28;20247;-80
2022/03/28 07:47:11;;;;;;;12.32;7.95;;;23.00;90.90;;;;;;5052023;28;20211;-79
2022/03/28 07:49:38;;;;;;;15.73;9.02;;;22.70;91.80;;;;;;5051344;28;20281;-78
2022/03/28 07:52:04;;;;;;;11.70;7.65;;;22.80;92.00;;;;;;5052148;28;20219;-79
2022/03/28 07:54:31;;;;;;;14.38;7.75;;;22.70;92.10;;;;;;5051774;28;20196;-78
2022/03/28 07:56:56;;;;;;;17.15;8.30;;;22.80;92.10;;;;;;5052458;28;20180;-78
2022/03/28 07:59:23;;;;;;;16.77;7.78;;;21.80;93.00;;;;;;5049727;28;20211;-78
2022/03/28 08:01:50;;;;;;;20.35;9.68;;;21.60;93.30;;;;;;5051624;28;20207;-78
2022/03/28 08:04:15;;;;;;;23.88;13.48;;;22.00;93.70;;;;;;5050347;28;20211;-79
2022/03/28 08:06:41;;;;;;;14.02;7.25;;;22.80;93.00;;;;;;5051762;28;20176;-78
2022/03/28 08:09:06;;;;;;;12.82;7.80;;;23.10;92.30;;;;;;5051543;28;20541;-78
2022/03/28 08:11:32;;;;;;;11.95;7.00;;;23.20;92.00;;;;;;5051614;28;20570;-79
2022/03/28 08:13:57;;;;;;;11.63;7.53;;;23.40;91.40;;;;;;5072394;23;20322;-77
2022/03/28 08:16:23;;;;;;;12.70;7.45;;;23.50;91.30;;;;;;5061477;28;20203;-79
2022/03/28 08:18:48;;;;;;;12.18;7.80;;;23.30;91.50;;;;;;5075056;28;20221;-79
2022/03/28 08:21:14;;;;;;;14.60;7.97;;;22.90;92.10;;;;;;5076127;28;20193;-79
2022/03/28 08:23:39;;;;;;;14.57;7.25;;;22.20;93.00;;;;;;5071737;28;20578;-78
2022/03/28 08:26:05;;;;;;;15.45;7.78;;;22.20;93.30;;;;;;5061780;28;20295;-79
2022/03/28 08:28:32;;;;;;;13.23;8.15;;;23.30;92.80;;;;;;5062682;28;20222;-79
2022/03/28 08:30:57;;;;;;;11.88;7.07;;;23.50;92.10;;;;;;5065764;28;20294;-79
2022/03/28 08:33:23;;;;;;;10.07;6.95;;;23.30;92.40;;;;;;5065295;28;20234;-78
2022/03/28 08:35:48;;;;;;;13.13;6.35;;;23.10;92.40;;;;;;5057123;28;20225;-78
2022/03/28 08:38:15;;;;;;;10.25;7.22;;;22.90;92.60;;;;;;5064997;28;20244;-79
2022/03/28 08:40:43;;;;;;;14.18;7.10;;;23.00;92.90;;;;;;5062905;28;20268;-78
2022/03/28 08:43:09;;;;;;;9.85;6.80;;;23.30;92.50;;;;;;5061742;28;20218;-79
2022/03/28 08:45:41;;;;;;;14.63;7.25;;;22.90;92.60;;;;;;5064545;28;20195;-79
2022/03/28 08:48:09;;;;;;;12.85;6.70;;;22.90;92.80;;;;;;5065793;28;20163;-79
2022/03/28 08:50:36;;;;;;;14.18;7.28;;;22.60;92.80;;;;;;5064710;28;20217;-79
2022/03/28 08:53:02;;;;;;;12.35;6.95;;;22.30;93.70;;;;;;5061807;28;20240;-80
2022/03/28 08:55:27;;;;;;;11.10;7.72;;;22.60;93.30;;;;;;5067973;28;20695;-80
2022/03/28 08:57:52;;;;;;;10.43;7.30;;;22.70;93.60;;;;;;5064904;28;20215;-79
2022/03/28 09:00:18;;;;;;;11.88;6.85;;;22.30;93.60;;;;;;5065461;28;20176;-79
2022/03/28 09:02:49;;;;;;;12.25;7.28;;;21.90;93.80;;;;;;5066866;28;20199;-80
2022/03/28 09:05:16;;;;;;;8.85;6.88;;;20.80;94.90;;;;;;5069083;28;20210;-80
2022/03/28 09:07:42;;;;;;;12.43;6.47;;;20.90;95.40;;;;;;5064944;28;20210;-78
2022/03/28 09:10:13;;;;;;;14.95;7.13;;;20.40;96.10;;;;;;5064542;28;20235;-82
2022/03/28 09:12:58;;;;;;;10.68;5.72;;;20.70;96.40;;;;;;5066785;28;20203;-80
2022/03/28 09:15:23;;;;;;;15.00;7.20;;;20.90;96.10;;;;;;5069206;28;20214;-81
2022/03/28 09:17:58;;;;;;;11.45;6.40;;;20.70;96.30;;;;;;5067468;28;20222;-81
2022/03/28 09:20:24;;;;;;;11.07;6.82;;;20.30;96.80;;;;;;5078059;28;20754;-79
2022/03/28 09:22:50;;;;;;;10.63;6.70;;;19.70;97.50;;;;;;5066390;28;20238;-79
2022/03/28 09:25:19;;;;;;;9.60;5.95;;;19.90;97.80;;;;;;5064041;28;20786;-79
2022/03/28 09:27:45;;;;;;;10.05;6.25;;;19.80;98.30;;;;;;5063038;28;20258;-79
2022/03/28 09:30:12;;;;;;;10.50;6.85;;;19.80;98.20;;;;;;5062463;28;20203;-79
2022/03/28 09:32:43;;;;;;;11.43;6.78;;;19.80;98.70;;;;;;5063809;28;20302;-81
2022/03/28 09:35:19;;;;;;;11.27;6.40;;;19.80;99.00;;;;;;5063458;28;20349;-79
2022/03/28 09:38:01;;;;;;;12.20;6.82;;;19.90;98.90;;;;;;5060959;28;20207;-79
2022/03/28 09:40:28;;;;;;;11.18;6.88;;;19.80;99.30;;;;;;5061959;28;20219;-80
2022/03/28 09:42:54;;;;;;;14.18;7.05;;;19.50;99.50;;;;;;5065919;28;20686;-81
2022/03/28 09:45:40;;;;;;;10.48;7.38;;;19.80;99.70;;;;;;5067205;28;20219;-81
2022/03/28 09:48:07;;;;;;;13.07;6.43;;;19.70;99.40;;;;;;5072705;28;20214;-80
2022/03/28 09:50:39;;;;;;;10.15;6.55;;;19.70;99.80;;;;;;5083471;28;20195;-82
2022/03/28 09:53:17;;;;;;;10.57;7.00;;;19.90;99.20;;;;;;5078618;28;20222;-86
2022/03/28 09:55:56;;;;;;;14.30;7.30;;;19.60;99.60;;;;;;5077186;28;20215;-78
2022/03/28 09:58:59;;;;;;;13.75;6.50;;;19.50;99.80;;;;;;5069092;28;20556;-79
2022/03/28 10:01:39;;;;;;;11.70;6.90;;;19.40;99.70;;;;;;5067933;28;20218;-79
2022/03/28 10:04:08;;;;;;;15.98;7.07;;;19.60;99.90;;;;;;5069526;28;20230;-79
2022/03/28 10:06:41;;;;;;;16.05;8.10;;;19.40;99.90;;;;;;5062177;28;20172;-78
2022/03/28 10:09:07;;;;;;;17.98;8.68;;;19.60;99.90;;;;;;5069145;28;20667;-79
2022/03/28 10:11:34;;;;;;;15.15;8.43;;;19.10;99.90;;;;;;5069108;28;20218;-79
2022/03/28 10:14:00;;;;;;;15.48;8.80;;;18.90;99.90;;;;;;5072572;28;20215;-79
2022/03/28 10:16:25;;;;;;;15.90;8.43;;;19.10;99.90;;;;;;5070877;28;20285;-80
2022/03/28 10:18:51;;;;;;;13.57;7.30;;;19.60;99.90;;;;;;5066107;28;20290;-80
2022/03/28 10:21:19;;;;;;;16.08;7.07;;;19.00;99.90;;;;;;5065740;28;20255;-80
2022/03/28 10:23:49;;;;;;;12.77;7.15;;;19.30;99.90;;;;;;5068901;28;20207;-82
2022/03/28 10:26:18;;;;;;;13.43;7.65;;;19.30;99.90;;;;;;5070114;28;20686;-81
2022/03/28 10:29:11;;;;;;;11.45;7.28;;;19.50;99.90;;;;;;5066005;28;20276;-80
2022/03/28 10:31:55;;;;;;;11.90;7.15;;;19.10;99.90;;;;;;5068412;28;20301;-82
2022/03/28 10:34:44;;;;;;;13.35;7.03;;;19.10;99.90;;;;;;5070417;28;20217;-80
2022/03/28 10:37:33;;;;;;;12.25;6.53;;;19.20;99.90;;;;;;5069215;28;20222;-80
2022/03/28 10:40:21;;;;;;;11.50;6.53;;;18.80;99.90;;;;;;5066228;28;20231;-79
2022/03/28 10:42:52;;;;;;;12.55;6.45;;;18.80;99.90;;;;;;5074378;28;20176;-79
2022/03/28 10:45:19;;;;;;;13.60;7.18;;;18.90;99.90;;;;;;5068581;28;20195;-79
2022/03/28 10:47:53;;;;;;;11.73;7.53;;;19.10;99.90;;;;;;5068850;28;20774;-80
2022/03/28 10:50:25;;;;;;;11.65;6.32;;;19.30;99.90;;;;;;5069974;28;20217;-79
2022/03/28 10:53:10;;;;;;;10.27;7.03;;;19.10;99.90;;;;;;5069459;28;20215;-82
2022/03/28 10:55:50;;;;;;;12.18;7.85;;;19.00;99.90;;;;;;5066546;28;20211;-79
2022/03/28 10:58:39;;;;;;;12.50;7.47;;;19.00;99.90;;;;;;5063632;28;20265;-80
2022/03/28 11:01:08;;;;;;;15.18;8.73;;;18.50;99.90;;;;;;5071309;28;20230;-79
2022/03/28 11:04:00;;;;;;;14.10;7.55;;;18.70;99.90;;;;;;5066721;28;20607;-82
2022/03/28 11:06:49;;;;;;;16.20;8.55;;;18.90;99.90;;;;;;5068749;28;20175;-80
2022/03/28 11:09:33;;;;;;;14.85;9.10;;;18.90;99.90;;;;;;5053836;28;20211;-81
2022/03/28 11:12:01;;;;;;;12.38;6.80;;;19.10;99.90;;;;;;5060964;28;20268;-78
2022/03/28 11:14:44;;;;;;;15.60;7.38;;;19.30;99.90;;;;;;5056133;28;20226;-79
2022/03/28 11:17:24;;;;;;;9.65;6.15;;;19.10;99.90;;;;;;5069278;28;20203;-79
2022/03/28 11:20:14;;;;;;;17.25;8.63;;;18.90;99.90;;;;;;5059521;28;20202;-79
2022/03/28 11:22:41;;;;;;;10.10;6.53;;;18.80;99.90;;;;;;5073334;28;20671;-78
2022/03/28 11:25:32;;;;;;;11.38;6.65;;;18.50;99.90;;;;;;5062314;28;20631;-78
2022/03/28 11:28:07;;;;;;;11.23;6.78;;;18.50;99.90;;;;;;5047238;28;20257;-78
2022/03/28 11:30:48;;;;;;;17.25;8.75;;;18.60;99.90;;;;;;5070314;28;20180;-78
2022/03/28 11:33:19;;;;;;;15.30;8.60;;;18.80;99.90;;;;;;5061912;28;20615;-78
2022/03/28 11:35:56;;;;;;;14.35;6.93;;;18.70;99.90;;;;;;5062514;28;20587;-76
2022/03/28 11:38:25;;;;;;;14.35;7.00;;;18.70;99.90;;;;;;5084228;28;20203;-81
2022/03/28 11:40:50;;;;;;;13.15;6.93;;;18.70;99.90;;;;;;5078717;28;20265;-78
2022/03/28 11:43:16;;;;;;;11.35;7.07;;;18.80;99.90;;;;;;5079421;28;20207;-78
2022/03/28 11:45:50;;;;;;;11.55;5.65;;;19.00;99.90;;;;;;5057430;28;20631;-78
2022/03/28 11:48:18;;;;;;;9.95;6.10;;;18.60;99.90;;;;;;5073896;28;20171;-78
2022/03/28 11:50:43;;;;;;;8.90;6.07;;;18.60;99.90;;;;;;5073855;28;20256;-77
2022/03/28 11:53:17;;;;;;;18.58;8.40;;;18.70;99.90;;;;;;5064501;28;20211;-79
2022/03/28 11:55:48;;;;;;;15.98;7.63;;;18.60;99.90;;;;;;5052346;28;20252;-78
2022/03/28 11:58:16;;;;;;;11.40;6.38;;;18.70;99.90;;;;;;5052948;28;20740;-79
2022/03/28 12:00:51;;;;;;;9.32;6.03;;;18.70;99.90;;;;;;5073192;28;20186;-79
2022/03/28 12:03:16;;;;;;;10.50;5.88;;;18.40;99.90;;;;;;5056862;28;20164;-78
2022/03/28 12:05:45;;;;;;;10.82;5.63;;;18.40;99.90;;;;;;5060177;28;20230;-78
2022/03/28 12:08:16;;;;;;;14.60;6.63;;;18.60;99.90;;;;;;5067507;28;20210;-78
2022/03/28 12:10:44;;;;;;;11.18;6.97;;;18.70;99.90;;;;;;5059890;28;20228;-78
2022/03/28 12:13:10;;;;;;;11.88;5.60;;;18.90;99.90;;;;;;5053059;28;20215;-79
2022/03/28 12:15:46;;;;;;;9.02;5.95;;;18.70;99.90;;;;;;5059390;28;20231;-77
2022/03/28 12:18:13;;;;;;;8.25;5.97;;;18.60;99.90;;;;;;5068214;28;20176;-78
2022/03/28 12:20:42;;;;;;;9.90;6.50;;;18.60;99.90;;;;;;5067906;28;20200;-78
2022/03/28 12:23:08;;;;;;;14.00;7.50;;;18.60;99.90;;;;;;5058581;28;20223;-79
2022/03/28 12:25:43;;;;;;;9.93;6.97;;;18.40;99.90;;;;;;5077476;28;20206;-79
2022/03/28 12:28:17;;;;;;;9.88;6.78;;;18.40;99.90;;;;;;5055281;28;20264;-79
2022/03/28 12:30:50;;;;;;;9.95;7.00;;;18.00;99.90;;;;;;5075828;28;20178;-78
2022/03/28 12:33:26;;;;;;;10.20;6.53;;;17.90;99.90;;;;;;5067796;28;20203;-79
2022/03/28 12:35:58;;;;;;;12.02;7.28;;;18.00;99.90;;;;;;5052309;28;20198;-79
2022/03/28 12:38:27;;;;;;;8.45;6.60;;;18.20;99.90;;;;;;5064718;28;20278;-79
2022/03/28 12:41:01;;;;;;;10.82;6.88;;;18.50;99.90;;;;;;5076112;28;20211;-79
2022/03/28 12:43:28;;;;;;;10.50;6.68;;;18.30;99.90;;;;;;5076518;28;20208;-80
2022/03/28 12:45:55;;;;;;;9.93;7.20;;;18.30;99.90;;;;;;5079924;28;20230;-79
2022/03/28 12:48:21;;;;;;;8.38;5.70;;;18.10;99.90;;;;;;5073713;28;20191;-79